Time;durP1;ratioP1;P1;durP2;ratioP2;P2;SDS_P1;SDS_P2;PMS_P1;PMS_P2;Temp;Humidity;BMP_temperature;BMP_pressure;BME280_temperature;BME280_humidity;BME280_pressure;Samples;Min_cycle;Max_cycle;Signal;HPM_P1;HPM_P2
2022/07/02 00:00:02;;;;;;;;;1.00;1.00;;;;;-146.44;100.00;58906.56;5095389;27;45847;-63
2022/07/02 00:02:31;;;;;;;;;2.00;2.00;;;;;-146.44;100.00;58906.56;5095402;27;45603;-64
2022/07/02 00:05:04;;;;;;;;;2.00;2.00;;;;;-146.44;100.00;58906.56;5093620;27;46576;-65
2022/07/02 00:07:30;;;;;;;;;0.75;0.75;;;;;-146.44;100.00;58906.56;5095014;27;45451;-63
2022/07/02 00:09:57;;;;;;;;;2.00;2.00;;;;;-146.44;100.00;58906.56;5095066;27;45419;-63
2022/07/02 00:12:24;;;;;;;;;2.00;2.00;;;;;-146.44;100.00;58906.56;5095033;27;45502;-63
2022/07/02 00:14:53;;;;;;;;;1.00;1.00;;;;;-146.44;100.00;58906.56;5094279;27;45465;-64
2022/07/02 00:17:19;;;;;;;;;1.00;1.00;;;;;-146.44;100.00;58906.56;5093498;27;45481;-65
2022/07/02 00:19:45;;;;;;;;;0.00;0.00;;;;;-146.44;100.00;58906.56;5095185;27;45482;-63
2022/07/02 00:22:11;;;;;;;;;1.00;1.00;;;;;-146.44;100.00;58906.56;5094770;27;45529;-62
2022/07/02 00:24:40;;;;;;;;;2.00;2.00;;;;;-146.44;100.00;58906.56;5094857;27;46214;-63
2022/07/02 00:27:08;;;;;;;;;2.00;1.00;;;;;-146.44;100.00;58906.56;5094841;27;45616;-64
2022/07/02 00:29:36;;;;;;;;;1.75;1.75;;;;;-146.44;100.00;58906.56;5094971;27;45412;-63
2022/07/02 00:32:03;;;;;;;;;2.00;2.00;;;;;-146.44;100.00;58906.56;5094925;27;45590;-63
2022/07/02 00:34:30;;;;;;;;;2.00;2.00;;;;;-146.44;100.00;58906.56;5094538;27;45431;-64
2022/07/02 00:36:56;;;;;;;;;1.00;1.00;;;;;-146.44;100.00;58906.56;5093035;27;45529;-63
2022/07/02 00:39:21;;;;;;;;;2.00;2.00;;;;;-146.44;100.00;58906.56;5094845;27;45525;-64
2022/07/02 00:41:47;;;;;;;;;2.00;2.00;;;;;-146.44;100.00;58906.56;5094860;27;45502;-63
2022/07/02 00:44:13;;;;;;;;;2.00;2.00;;;;;-146.44;100.00;58906.56;5094401;27;46070;-65
2022/07/02 00:46:40;;;;;;;;;2.00;2.00;;;;;-146.44;100.00;58906.56;5094573;27;45533;-63
2022/07/02 00:49:08;;;;;;;;;3.00;3.00;;;;;-146.44;100.00;58906.56;5094633;27;45560;-63
2022/07/02 00:51:34;;;;;;;;;2.00;2.00;;;;;-146.44;100.00;58906.56;5094698;27;45574;-63
2022/07/02 00:53:59;;;;;;;;;3.00;3.00;;;;;-146.44;100.00;58906.56;5094155;27;46078;-62
2022/07/02 00:56:25;;;;;;;;;4.00;4.00;;;;;-146.44;100.00;58906.56;5094370;27;45379;-64
2022/07/02 00:58:51;;;;;;;;;4.00;4.00;;;;;-146.44;100.00;58906.56;5094271;27;45423;-63
2022/07/02 01:01:16;;;;;;;;;3.00;3.00;;;;;-146.44;100.00;58906.56;5094477;27;45622;-63
2022/07/02 01:03:43;;;;;;;;;2.00;2.00;;;;;-146.44;100.00;58906.56;5094029;27;45539;-62
2022/07/02 01:06:08;;;;;;;;;2.67;2.67;;;;;-146.44;100.00;58906.56;5094076;27;45532;-63
2022/07/02 01:11:18;;;;;;;;;5.00;5.00;;;;;-146.44;100.00;58906.56;5094165;27;45520;-62
2022/07/02 01:13:44;;;;;;;;;3.00;3.00;;;;;-146.44;100.00;58906.56;5093862;27;45925;-63
2022/07/02 01:16:09;;;;;;;;;3.00;3.00;;;;;-146.44;100.00;58906.56;5094097;27;45523;-65
2022/07/02 01:18:36;;;;;;;;;3.67;3.67;;;;;-146.44;100.00;58906.56;5094183;27;45422;-64
2022/07/02 01:21:03;;;;;;;;;3.00;3.00;;;;;-146.44;100.00;58906.56;5094162;27;45515;-63
2022/07/02 01:23:28;;;;;;;;;2.00;2.00;;;;;-146.44;100.00;58906.56;5093917;27;46515;-63
2022/07/02 01:25:54;;;;;;;;;4.00;4.00;;;;;-146.44;100.00;58906.56;5093978;27;46038;-64
2022/07/02 01:28:21;;;;;;;;;3.00;3.00;;;;;-146.44;100.00;58906.56;5096340;27;45571;-65
2022/07/02 01:30:47;;;;;;;;;4.67;3.67;;;;;-146.44;100.00;58906.56;5097569;27;45544;-62
2022/07/02 01:33:13;;;;;;;;;2.75;2.75;;;;;-146.44;100.00;58906.56;5097225;27;46289;-62
2022/07/02 01:35:38;;;;;;;;;5.00;4.00;;;;;-146.44;100.00;58906.56;5097315;27;45588;-63
2022/07/02 01:38:04;;;;;;;;;3.33;3.33;;;;;-146.44;100.00;58906.56;5097471;27;45345;-62
2022/07/02 01:40:29;;;;;;;;;3.33;3.33;;;;;-146.44;100.00;58906.56;5097578;27;45450;-63
2022/07/02 01:42:54;;;;;;;;;5.00;4.00;;;;;-146.44;100.00;58906.56;5096842;27;45994;-61
2022/07/02 01:45:20;;;;;;;;;3.67;3.00;;;;;-146.44;100.00;58906.56;5097337;27;45463;-62
2022/07/02 01:47:45;;;;;;;;;2.25;2.25;;;;;-146.44;100.00;58906.56;5097251;27;45500;-63
2022/07/02 01:50:11;;;;;;;;;3.00;3.00;;;;;-146.44;100.00;58906.56;5097180;27;45555;-63
2022/07/02 01:52:37;;;;;;;;;5.00;5.00;;;;;-146.44;100.00;58906.56;5097022;27;45609;-64
2022/07/02 01:55:03;;;;;;;;;3.00;3.00;;;;;-146.44;100.00;58906.56;5096985;27;45515;-63
2022/07/02 01:57:35;;;;;;;;;5.00;3.67;;;;;-146.44;100.00;58906.56;5097178;27;45402;-65
2022/07/02 02:00:04;;;;;;;;;2.33;2.33;;;;;-146.44;100.00;58906.56;5097188;27;45437;-62
2022/07/02 02:02:30;;;;;;;;;3.00;3.00;;;;;-146.44;100.00;58906.56;5096584;27;47682;-63
2022/07/02 02:04:55;;;;;;;;;3.33;3.33;;;;;-146.44;100.00;58906.56;5097023;27;45462;-64
2022/07/02 02:07:21;;;;;;;;;5.00;5.00;;;;;-146.44;100.00;58906.56;5096724;27;45399;-63
2022/07/02 02:09:46;;;;;;;;;4.00;3.00;;;;;-146.44;100.00;58906.56;5096785;27;45739;-63
2022/07/02 02:12:11;;;;;;;;;3.50;3.50;;;;;-146.44;100.00;58906.56;5096796;27;45436;-64
2022/07/02 02:14:36;;;;;;;;;4.00;3.00;;;;;-146.44;100.00;58906.56;5096765;27;45546;-64
2022/07/02 02:17:02;;;;;;;;;4.00;4.00;;;;;-146.44;100.00;58906.56;5096978;27;45395;-64
2022/07/02 02:19:28;;;;;;;;;2.67;2.67;;;;;-146.44;100.00;58906.56;5096888;27;45433;-64
2022/07/02 02:21:53;;;;;;;;;3.00;2.00;;;;;-146.44;100.00;58906.56;5096783;27;46070;-63
2022/07/02 02:24:19;;;;;;;;;3.00;3.00;;;;;-146.44;100.00;58906.56;5096730;27;45486;-63
2022/07/02 02:26:44;;;;;;;;;4.00;4.00;;;;;-146.44;100.00;58906.56;5078407;27;45459;-63
2022/07/02 02:29:09;;;;;;;;;3.00;3.00;;;;;-146.44;100.00;58906.56;5096567;27;45606;-64
2022/07/02 02:31:35;;;;;;;;;2.67;2.33;;;;;-146.44;100.00;58906.56;5096506;27;45981;-64
2022/07/02 02:34:00;;;;;;;;;3.00;3.00;;;;;-146.44;100.00;58906.56;5096512;27;45543;-64
2022/07/02 02:36:26;;;;;;;;;4.33;4.33;;;;;-146.44;100.00;58906.56;5096416;27;45430;-64
2022/07/02 02:38:51;;;;;;;;;3.00;3.00;;;;;-146.44;100.00;58906.56;5096140;27;45417;-62
2022/07/02 02:41:16;;;;;;;;;3.67;3.00;;;;;-146.44;100.00;58906.56;5096289;27;45596;-62
2022/07/02 02:43:42;;;;;;;;;2.00;2.00;;;;;-146.44;100.00;58906.56;5096048;27;45533;-63
2022/07/02 02:46:07;;;;;;;;;5.00;4.00;;;;;-146.44;100.00;58906.56;5078141;27;45583;-63
2022/07/02 02:48:35;;;;;;;;;3.00;3.00;;;;;-146.44;100.00;58906.56;5096133;27;45663;-63
2022/07/02 02:51:00;;;;;;;;;4.00;4.00;;;;;-146.44;100.00;58906.56;5094843;27;46703;-65
2022/07/02 02:53:26;;;;;;;;;4.00;4.00;;;;;-146.44;100.00;58906.56;5096019;27;45400;-64
2022/07/02 02:55:51;;;;;;;;;3.00;3.00;;;;;-146.44;100.00;58906.56;5096432;27;45534;-64
2022/07/02 02:58:17;;;;;;;;;5.00;4.00;;;;;-146.44;100.00;58906.56;5096261;27;45432;-64
2022/07/02 03:00:43;;;;;;;;;3.00;3.00;;;;;-146.44;100.00;58906.56;5096011;27;45971;-62
2022/07/02 03:03:08;;;;;;;;;4.00;4.00;;;;;-146.44;100.00;58906.56;5095990;27;45356;-63
2022/07/02 03:05:34;;;;;;;;;2.67;2.67;;;;;-146.44;100.00;58906.56;5095973;27;45467;-64
2022/07/02 03:07:59;;;;;;;;;5.33;4.33;;;;;-146.44;100.00;58906.56;5096000;27;45504;-62
2022/07/02 03:10:25;;;;;;;;;4.33;4.33;;;;;-146.44;100.00;58906.56;5095766;27;46596;-63
2022/07/02 03:12:50;;;;;;;;;3.00;3.00;;;;;-146.44;100.00;58906.56;5095831;27;45463;-63
2022/07/02 03:15:15;;;;;;;;;4.00;4.00;;;;;-146.44;100.00;58906.56;5096145;27;45513;-64
2022/07/02 03:17:41;;;;;;;;;4.67;3.00;;;;;-146.44;100.00;58906.56;5095963;27;45577;-63
2022/07/02 03:20:07;;;;;;;;;4.67;4.67;;;;;-146.44;100.00;58906.56;5095677;27;46103;-63
2022/07/02 03:22:32;;;;;;;;;3.00;3.00;;;;;-146.44;100.00;58906.56;5095858;27;45507;-62
2022/07/02 03:24:58;;;;;;;;;3.67;3.67;;;;;-146.44;100.00;58906.56;5095667;27;45668;-63
2022/07/02 03:27:24;;;;;;;;;4.67;4.67;;;;;-146.44;100.00;58906.56;5095761;27;45583;-64
2022/07/02 03:29:50;;;;;;;;;4.67;4.00;;;;;-146.44;100.00;58906.56;5094047;27;47618;-64
2022/07/02 03:32:16;;;;;;;;;4.33;4.00;;;;;-146.44;100.00;58906.56;5095434;27;45485;-63
2022/07/02 03:34:41;;;;;;;;;3.67;3.67;;;;;-146.44;100.00;58906.56;5095709;27;45501;-64
2022/07/02 03:37:06;;;;;;;;;3.00;3.00;;;;;-146.44;100.00;58906.56;5095536;27;45487;-62
2022/07/02 03:39:32;;;;;;;;;3.00;3.00;;;;;-146.44;100.00;58906.56;5095352;27;45711;-65
2022/07/02 03:41:57;;;;;;;;;5.33;4.00;;;;;-146.44;100.00;58906.56;5095017;27;45501;-64
2022/07/02 03:44:23;;;;;;;;;5.00;5.00;;;;;-146.44;100.00;58906.56;5077255;27;45507;-63
2022/07/02 03:46:48;;;;;;;;;3.00;3.00;;;;;-146.44;100.00;58906.56;5095636;27;45431;-64
2022/07/02 03:49:13;;;;;;;;;3.00;3.00;;;;;-146.44;100.00;58906.56;5095007;27;46554;-64
2022/07/02 03:51:38;;;;;;;;;4.33;3.33;;;;;-146.44;100.00;58906.56;5075513;27;54004;-63
2022/07/02 03:54:04;;;;;;;;;3.33;3.00;;;;;-146.44;100.00;58906.56;5095484;27;45962;-64
2022/07/02 03:56:29;;;;;;;;;3.67;3.67;;;;;-146.44;100.00;58906.56;5076949;27;45495;-64
2022/07/02 03:58:55;;;;;;;;;4.33;4.00;;;;;-146.44;100.00;58906.56;5094949;27;46078;-62
2022/07/02 04:01:20;;;;;;;;;3.33;3.33;;;;;-146.44;100.00;58906.56;5094396;27;45508;-63
2022/07/02 04:03:45;;;;;;;;;3.33;3.33;;;;;-146.44;100.00;58906.56;5076157;27;46134;-63
2022/07/02 04:06:11;;;;;;;;;4.00;4.00;;;;;-146.44;100.00;58906.56;5094930;27;45532;-63
2022/07/02 04:08:36;;;;;;;;;3.00;3.00;;;;;-146.44;100.00;58906.56;5094722;27;45796;-62
2022/07/02 04:11:02;;;;;;;;;5.00;4.00;;;;;-146.44;100.00;58906.56;5076653;27;45484;-63
2022/07/02 04:13:27;;;;;;;;;2.33;2.33;;;;;-146.44;100.00;58906.56;5095089;27;45555;-63
2022/07/02 04:15:52;;;;;;;;;5.00;5.00;;;;;-146.44;100.00;58906.56;5094874;27;45974;-63
2022/07/02 04:18:18;;;;;;;;;3.33;3.33;;;;;-146.44;100.00;58906.56;5094699;27;46104;-64
2022/07/02 04:20:44;;;;;;;;;3.00;2.00;;;;;-146.44;100.00;58906.56;5094871;27;45442;-63
2022/07/02 04:23:09;;;;;;;;;2.00;2.00;;;;;-146.44;100.00;58906.56;5095131;27;45654;-63
2022/07/02 04:25:35;;;;;;;;;2.67;2.67;;;;;-146.44;100.00;58906.56;5095007;27;45411;-64
2022/07/02 04:28:00;;;;;;;;;2.00;2.00;;;;;-146.44;100.00;58906.56;5094396;27;46220;-64
2022/07/02 04:30:25;;;;;;;;;3.67;3.67;;;;;-146.44;100.00;58906.56;5094692;27;45518;-62
2022/07/02 04:32:51;;;;;;;;;3.00;3.00;;;;;-146.44;100.00;58906.56;5094857;27;45489;-63
2022/07/02 04:35:17;;;;;;;;;3.00;3.00;;;;;-146.44;100.00;58906.56;5094665;27;45609;-63
2022/07/02 04:37:42;;;;;;;;;4.00;2.00;;;;;-146.44;100.00;58906.56;5094580;27;47482;-64
2022/07/02 04:40:08;;;;;;;;;3.00;3.00;;;;;-146.44;100.00;58906.56;5094547;27;49619;-63
2022/07/02 04:42:33;;;;;;;;;4.67;3.00;;;;;-146.44;100.00;58906.56;5094583;27;45363;-63
2022/07/02 04:44:59;;;;;;;;;3.67;3.67;;;;;-146.44;100.00;58906.56;5076183;27;46325;-64
2022/07/02 04:47:24;;;;;;;;;2.00;2.00;;;;;-146.44;100.00;58906.56;5093967;27;57631;-63
2022/07/02 04:49:50;;;;;;;;;4.67;4.67;;;;;-146.44;100.00;58906.56;5094295;27;45457;-64
2022/07/02 04:52:15;;;;;;;;;4.00;4.00;;;;;-146.44;100.00;58906.56;5094581;27;45403;-63
2022/07/02 04:54:41;;;;;;;;;3.00;3.00;;;;;-146.44;100.00;58906.56;5094445;27;45379;-64
2022/07/02 04:57:06;;;;;;;;;3.00;3.00;;;;;-146.44;100.00;58906.56;5075978;27;45558;-63
2022/07/02 04:59:31;;;;;;;;;3.00;2.67;;;;;-146.44;100.00;58906.56;5094259;27;45510;-63
2022/07/02 05:01:57;;;;;;;;;5.00;5.00;;;;;-146.44;100.00;58906.56;5095960;27;45528;-64
2022/07/02 05:04:22;;;;;;;;;4.00;4.00;;;;;-146.44;100.00;58906.56;5098022;27;45439;-62
2022/07/02 05:06:48;;;;;;;;;5.33;3.00;;;;;-146.44;100.00;58906.56;5098036;27;46378;-62
2022/07/02 05:09:14;;;;;;;;;2.00;2.00;;;;;-146.44;100.00;58906.56;5097553;27;45483;-63
2022/07/02 05:11:39;;;;;;;;;4.00;4.00;;;;;-146.44;100.00;58906.56;5097857;27;45551;-63
2022/07/02 05:14:04;;;;;;;;;3.00;3.00;;;;;-146.44;100.00;58906.56;5097985;27;45558;-64
2022/07/02 05:16:30;;;;;;;;;4.00;4.00;;;;;-146.44;100.00;58906.56;5097729;27;46199;-63
2022/07/02 05:18:55;;;;;;;;;2.67;2.67;;;;;-146.44;100.00;58906.56;5097634;27;45512;-62
2022/07/02 05:21:21;;;;;;;;;2.00;2.00;;;;;-146.44;100.00;58906.56;5097605;27;45491;-63
2022/07/02 05:23:46;;;;;;;;;3.00;3.00;;;;;-146.44;100.00;58906.56;5097484;27;45456;-63
2022/07/02 05:26:11;;;;;;;;;2.67;2.67;;;;;-146.44;100.00;58906.56;5097443;27;46367;-62
2022/07/02 05:28:37;;;;;;;;;4.67;4.67;;;;;-146.44;100.00;58906.56;5097399;27;45472;-63
2022/07/02 05:31:02;;;;;;;;;3.00;3.00;;;;;-146.44;100.00;58906.56;5097734;27;45477;-62
2022/07/02 05:33:27;;;;;;;;;4.67;4.00;;;;;-146.44;100.00;58906.56;5097572;27;45456;-63
2022/07/02 05:35:53;;;;;;;;;3.33;3.33;;;;;-146.44;100.00;58906.56;5097540;27;45983;-64
2022/07/02 05:38:18;;;;;;;;;5.00;5.00;;;;;-146.44;100.00;58906.56;5097274;27;45399;-62
2022/07/02 05:40:44;;;;;;;;;4.33;4.33;;;;;-146.44;100.00;58906.56;5097650;27;45937;-62
2022/07/02 05:43:09;;;;;;;;;3.33;3.33;;;;;-146.44;100.00;58906.56;5097417;27;45641;-63
2022/07/02 05:45:35;;;;;;;;;5.00;5.00;;;;;-146.44;100.00;58906.56;5097112;27;45947;-62
2022/07/02 05:48:00;;;;;;;;;4.33;4.00;;;;;-146.44;100.00;58906.56;5097135;27;45425;-62
2022/07/02 05:50:26;;;;;;;;;4.67;4.67;;;;;-146.44;100.00;58906.56;5097191;27;45511;-64
2022/07/02 05:52:51;;;;;;;;;5.33;4.33;;;;;-146.44;100.00;58906.56;5078840;27;45638;-64
2022/07/02 05:55:16;;;;;;;;;3.67;3.67;;;;;-146.44;100.00;58906.56;5097010;27;46718;-63
2022/07/02 05:57:42;;;;;;;;;6.67;5.00;;;;;-146.44;100.00;58906.56;5097283;27;45471;-61
2022/07/02 06:00:10;;;;;;;;;4.67;4.67;;;;;-146.44;100.00;58906.56;5097266;27;45492;-62
2022/07/02 06:02:36;;;;;;;;;6.67;6.00;;;;;-146.44;100.00;58906.56;5097044;27;45611;-64
2022/07/02 06:07:46;;;;;;;;;7.00;7.00;;;;;-146.44;100.00;58906.56;5097013;27;45439;-63
2022/07/02 06:10:18;;;;;;;;;5.00;5.00;;;;;-146.44;100.00;58906.56;5096857;27;45423;-63
2022/07/02 06:12:51;;;;;;;;;7.33;7.33;;;;;-146.44;100.00;58906.56;5096174;27;45430;-61
2022/07/02 06:15:17;;;;;;;;;2.33;2.00;;;;;-146.44;100.00;58906.56;5096677;27;46086;-61
2022/07/02 06:17:43;;;;;;;;;7.00;7.00;;;;;-146.44;100.00;58906.56;5096815;27;45455;-63
2022/07/02 06:20:10;;;;;;;;;6.33;6.33;;;;;-146.44;100.00;58906.56;5095495;27;45500;-64
2022/07/02 06:22:35;;;;;;;;;6.67;6.67;;;;;-146.44;100.00;58906.56;5096788;27;45658;-64
2022/07/02 06:25:00;;;;;;;;;5.33;5.33;;;;;-146.44;100.00;58906.56;5096526;27;46772;-62
2022/07/02 06:27:26;;;;;;;;;8.00;7.00;;;;;-146.44;100.00;58906.56;5096752;27;45426;-62
2022/07/02 06:29:51;;;;;;;;;6.67;6.00;;;;;-146.44;100.00;58906.56;5096706;27;45952;-62
2022/07/02 06:32:17;;;;;;;;;5.33;5.33;;;;;-146.44;100.00;58906.56;5096526;27;45388;-61
2022/07/02 06:34:43;;;;;;;;;5.00;5.00;;;;;-146.44;100.00;58906.56;5096284;27;46407;-61
2022/07/02 06:37:09;;;;;;;;;8.00;8.00;;;;;-146.44;100.00;58906.56;5095095;27;45534;-63
2022/07/02 06:39:35;;;;;;;;;5.00;5.00;;;;;-146.44;100.00;58906.56;5096511;27;45426;-63
2022/07/02 06:42:19;;;;;;;;;7.00;6.67;;;;;-146.44;100.00;58906.56;5096262;27;45651;-63
2022/07/02 06:44:48;;;;;;;;;6.00;5.50;;;;;-146.44;100.00;58906.56;5096356;27;46272;-62
2022/07/02 06:47:14;;;;;;;;;6.67;6.67;;;;;-146.44;100.00;58906.56;5096304;27;45767;-64
2022/07/02 06:49:40;;;;;;;;;4.33;4.33;;;;;-146.44;100.00;58906.56;5096109;27;45535;-63
2022/07/02 06:52:06;;;;;;;;;7.00;7.00;;;;;-146.44;100.00;58906.56;5096177;27;45556;-63
2022/07/02 06:54:32;;;;;;;;;5.67;5.00;;;;;-146.44;100.00;58906.56;5096135;27;46683;-63
2022/07/02 06:56:57;;;;;;;;;6.00;4.00;;;;;-146.44;100.00;58906.56;5096070;27;45529;-63
2022/07/02 06:59:22;;;;;;;;;6.00;5.00;;;;;-146.44;100.00;58906.56;5096262;27;45417;-63
2022/07/02 07:01:48;;;;;;;;;4.00;4.00;;;;;-146.44;100.00;58906.56;5096163;27;45375;-62
2022/07/02 07:04:14;;;;;;;;;4.33;4.33;;;;;-146.44;100.00;58906.56;5095799;27;46392;-63
2022/07/02 07:06:41;;;;;;;;;4.33;4.00;;;;;-146.44;100.00;58906.56;5096155;27;45581;-62
2022/07/02 07:09:07;;;;;;;;;3.33;3.33;;;;;-146.44;100.00;58906.56;5096231;27;45489;-63
2022/07/02 07:11:33;;;;;;;;;4.00;3.00;;;;;-146.44;100.00;58906.56;5095891;27;45472;-62
2022/07/02 07:13:58;;;;;;;;;2.33;2.33;;;;;-146.44;100.00;58906.56;5095875;27;45414;-62
2022/07/02 07:16:23;;;;;;;;;3.00;3.00;;;;;-146.44;100.00;58906.56;5076912;27;45367;-62
2022/07/02 07:19:10;;;;;;;;;2.00;2.00;;;;;-146.44;100.00;58906.56;5095871;27;45414;-62
2022/07/02 07:21:40;;;;;;;;;1.67;1.67;;;;;-146.44;100.00;58906.56;5095399;27;45467;-62
2022/07/02 07:24:06;;;;;;;;;0.33;0.33;;;;;-146.44;100.00;58906.56;5094475;27;46369;-62
2022/07/02 07:26:32;;;;;;;;;2.00;2.00;;;;;-146.44;100.00;58906.56;5094840;27;45515;-63
2022/07/02 07:28:57;;;;;;;;;1.00;1.00;;;;;-146.44;100.00;58906.56;5095622;27;45475;-62
2022/07/02 07:31:23;;;;;;;;;2.00;2.00;;;;;-146.44;100.00;58906.56;5095739;27;45574;-64
2022/07/02 07:33:52;;;;;;;;;3.00;2.00;;;;;-146.44;100.00;58906.56;5095632;27;45651;-62
2022/07/02 07:36:22;;;;;;;;;4.00;1.33;;;;;-146.44;100.00;58906.56;5095613;27;45588;-64
2022/07/02 07:38:49;;;;;;;;;2.00;2.00;;;;;-146.44;100.00;58906.56;5095806;27;45498;-62
2022/07/02 07:41:15;;;;;;;;;1.75;0.75;;;;;-146.44;100.00;58906.56;5095576;27;45516;-63
2022/07/02 07:43:41;;;;;;;;;2.00;2.00;;;;;-146.44;100.00;58906.56;5095230;27;45649;-63
2022/07/02 07:46:06;;;;;;;;;1.00;1.00;;;;;-146.44;100.00;58906.56;5076928;27;45506;-64
2022/07/02 07:48:32;;;;;;;;;2.33;1.67;;;;;-146.44;100.00;58906.56;5095461;27;45497;-64
2022/07/02 07:50:57;;;;;;;;;2.00;2.00;;;;;-146.44;100.00;58906.56;5095349;27;45424;-63
2022/07/02 07:53:23;;;;;;;;;4.00;3.00;;;;;-146.44;100.00;58906.56;5095285;27;46358;-64
2022/07/02 07:55:48;;;;;;;;;1.00;1.00;;;;;-146.44;100.00;58906.56;5095244;27;45519;-64
2022/07/02 07:58:17;;;;;;;;;4.00;2.00;;;;;-146.44;100.00;58906.56;5095429;27;45441;-64
2022/07/02 08:00:43;;;;;;;;;4.00;4.00;;;;;-146.44;100.00;58906.56;5077450;27;45613;-64
2022/07/02 08:03:08;;;;;;;;;2.00;2.00;;;;;-146.44;100.00;58906.56;5095088;27;45486;-63
2022/07/02 08:05:35;;;;;;;;;1.67;1.67;;;;;-146.44;100.00;58906.56;5095201;27;45572;-63
2022/07/02 08:08:01;;;;;;;;;1.00;1.00;;;;;-146.44;100.00;58906.56;5095316;27;45478;-64
2022/07/02 08:10:26;;;;;;;;;1.00;1.00;;;;;-146.44;100.00;58906.56;5095170;27;45427;-63
2022/07/02 08:12:52;;;;;;;;;1.00;1.00;;;;;-146.44;100.00;58906.56;5094741;27;46492;-63
2022/07/02 08:15:17;;;;;;;;;0.50;0.50;;;;;-146.44;100.00;58906.56;5094969;27;45494;-63
2022/07/02 08:17:43;;;;;;;;;1.00;1.00;;;;;-146.44;100.00;58906.56;5095145;27;46041;-63
2022/07/02 08:20:09;;;;;;;;;1.75;1.75;;;;;-146.44;100.00;58906.56;5094804;27;45473;-62
2022/07/02 08:22:35;;;;;;;;;1.00;1.00;;;;;-146.44;100.00;58906.56;5094703;27;46558;-63
2022/07/02 08:25:03;;;;;;;;;1.25;1.25;;;;;-146.44;100.00;58906.56;5094775;27;45501;-64
2022/07/02 08:27:28;;;;;;;;;1.00;1.00;;;;;-146.44;100.00;58906.56;5094787;27;45419;-63
2022/07/02 08:29:54;;;;;;;;;1.75;1.75;;;;;-146.44;100.00;58906.56;5094628;27;45468;-65
2022/07/02 08:32:19;;;;;;;;;0.00;0.00;;;;;-146.44;100.00;58906.56;5094821;27;45534;-63
2022/07/02 08:34:45;;;;;;;;;0.75;0.75;;;;;-146.44;100.00;58906.56;5094695;27;45476;-64
2022/07/02 08:37:10;;;;;;;;;1.25;1.25;;;;;-146.44;100.00;58906.56;5094190;27;45426;-65
2022/07/02 08:39:36;;;;;;;;;1.00;1.00;;;;;-146.44;100.00;58906.56;5094785;27;45422;-63
2022/07/02 08:42:02;;;;;;;;;1.00;1.00;;;;;-146.44;100.00;58906.56;5093744;27;46324;-64
2022/07/02 08:44:30;;;;;;;;;0.75;0.75;;;;;-146.44;100.00;58906.56;5094438;27;45508;-63
2022/07/02 08:46:56;;;;;;;;;0.00;0.00;;;;;-146.44;100.00;58906.56;5094668;27;45455;-63
2022/07/02 08:49:22;;;;;;;;;0.00;0.00;;;;;-146.44;100.00;58906.56;5094380;27;45688;-63
2022/07/02 08:54:21;;;;;;;;;1.25;1.25;;;;;-146.44;100.00;58906.56;5094638;27;45401;-63
2022/07/02 08:56:47;;;;;;;;;1.00;1.00;;;;;-146.44;100.00;58906.56;5094351;27;45417;-64
2022/07/02 08:59:12;;;;;;;;;1.00;1.00;;;;;-146.44;100.00;58906.56;5094542;27;45501;-63
2022/07/02 09:01:38;;;;;;;;;1.00;1.00;;;;;-146.44;100.00;58906.56;5094011;27;45496;-63
2022/07/02 09:04:04;;;;;;;;;0.25;0.25;;;;;-146.44;100.00;58906.56;5094323;27;45490;-63
2022/07/02 09:06:31;;;;;;;;;1.00;0.00;;;;;-146.44;100.00;58906.56;5094274;27;45401;-62
2022/07/02 09:08:58;;;;;;;;;0.00;0.00;;;;;-146.44;100.00;58906.56;5094147;27;45543;-62
2022/07/02 09:11:23;;;;;;;;;0.50;0.50;;;;;-146.44;100.00;58906.56;5075744;27;46396;-62
2022/07/02 09:13:49;;;;;;;;;0.25;0.25;;;;;-146.44;100.00;58906.56;5094276;27;45986;-64
2022/07/02 09:16:15;;;;;;;;;0.50;0.00;;;;;-146.44;100.00;58906.56;5094046;27;45617;-63
2022/07/02 09:18:41;;;;;;;;;0.50;0.50;;;;;-146.44;100.00;58906.56;5094045;27;45523;-65
2022/07/02 09:21:06;;;;;;;;;2.00;0.75;;;;;-146.44;100.00;58906.56;5092264;27;45919;-65
2022/07/02 09:23:31;;;;;;;;;2.00;1.00;;;;;-146.44;100.00;58906.56;5093913;27;45526;-65
2022/07/02 09:25:57;;;;;;;;;0.75;0.75;;;;;-146.44;100.00;58906.56;5094384;27;45439;-65
2022/07/02 09:28:22;;;;;;;;;1.00;1.00;;;;;-146.44;100.00;58906.56;5093923;27;45391;-64
2022/07/02 09:30:48;;;;;;;;;3.00;1.75;;;;;-146.44;100.00;58906.56;5075591;27;47749;-63
2022/07/02 09:33:28;;;;;;;;;6.00;5.33;;;;;-146.44;100.00;58906.56;5093840;27;45580;-64
2022/07/02 09:35:54;;;;;;;;;3.00;3.00;;;;;-146.44;100.00;58906.56;5093907;27;45414;-63
2022/07/02 09:38:19;;;;;;;;;0.00;0.00;;;;;-146.44;100.00;58906.56;5093987;27;45569;-63
2022/07/02 09:40:59;;;;;;;;;1.50;1.50;;;;;-146.44;100.00;58906.56;5093615;27;45537;-63
2022/07/02 09:43:32;;;;;;;;;1.00;1.00;;;;;-146.44;100.00;58906.56;5093664;27;45491;-62
2022/07/02 09:45:59;;;;;;;;;0.75;0.75;;;;;-146.44;100.00;58906.56;5093533;27;45536;-65
2022/07/02 09:48:25;;;;;;;;;0.25;0.25;;;;;-146.44;100.00;58906.56;5094797;27;45559;-65
2022/07/02 09:50:54;;;;;;;;;1.75;1.00;;;;;-146.44;100.00;58906.56;5096894;27;45526;-64
2022/07/02 09:53:19;;;;;;;;;0.00;0.00;;;;;-146.44;100.00;58906.56;5096801;27;45396;-65
2022/07/02 09:55:49;;;;;;;;;0.00;0.00;;;;;-146.44;100.00;58906.56;5097549;27;45440;-65
2022/07/02 09:58:26;;;;;;;;;0.75;0.75;;;;;-146.44;100.00;58906.56;5097285;27;45579;-64
2022/07/02 10:00:51;;;;;;;;;0.00;0.00;;;;;-146.44;100.00;58906.56;5097221;27;46379;-64
2022/07/02 10:03:17;;;;;;;;;1.00;1.00;;;;;-146.44;100.00;58906.56;5097140;27;45539;-63
2022/07/02 10:05:48;;;;;;;;;0.25;0.25;;;;;-146.44;100.00;58906.56;5078642;27;45490;-65
2022/07/02 10:08:13;;;;;;;;;1.00;1.00;;;;;-146.44;100.00;58906.56;5097013;27;45502;-63
2022/07/02 10:10:39;;;;;;;;;0.75;0.75;;;;;-146.44;100.00;58906.56;5096634;27;46377;-64
2022/07/02 10:13:14;;;;;;;;;0.00;0.00;;;;;-146.44;100.00;58906.56;5096804;27;45480;-64
2022/07/02 10:15:59;;;;;;;;;3.00;1.50;;;;;-146.44;100.00;58906.56;5096904;27;45540;-63
2022/07/02 10:18:24;;;;;;;;;0.00;0.00;;;;;-146.44;100.00;58906.56;5095317;27;45525;-62
2022/07/02 10:20:52;;;;;;;;;0.50;0.50;;;;;-146.44;100.00;58906.56;5096630;27;45511;-63
2022/07/02 10:23:20;;;;;;;;;2.00;1.00;;;;;-146.44;100.00;58906.56;5096546;27;45465;-62
2022/07/02 10:25:49;;;;;;;;;0.00;0.00;;;;;-146.44;100.00;58906.56;5096856;27;45481;-64
2022/07/02 10:28:14;;;;;;;;;0.50;0.50;;;;;-146.44;100.00;58906.56;5096734;27;45569;-63
2022/07/02 10:30:40;;;;;;;;;0.75;0.75;;;;;-146.44;100.00;58906.56;5096180;27;45550;-65
2022/07/02 10:33:24;;;;;;;;;2.75;2.00;;;;;-146.44;100.00;58906.56;5096494;27;45527;-63
2022/07/02 10:35:50;;;;;;;;;0.00;0.00;;;;;-146.44;100.00;58906.56;5078127;27;45480;-65
2022/07/02 10:38:37;;;;;;;;;0.00;0.00;;;;;-146.44;100.00;58906.56;5096709;27;45420;-65
2022/07/02 10:41:03;;;;;;;;;1.00;1.00;;;;;-146.44;100.00;58906.56;5096352;27;46427;-64
2022/07/02 10:43:32;;;;;;;;;3.25;3.25;;;;;-146.44;100.00;58906.56;5096190;27;45816;-63
2022/07/02 10:46:09;;;;;;;;;1.00;1.00;;;;;-146.44;100.00;58906.56;5096283;27;45525;-65
2022/07/02 10:48:47;;;;;;;;;1.00;1.00;;;;;-146.44;100.00;58906.56;5096254;27;45558;-63
2022/07/02 10:51:26;;;;;;;;;1.00;1.00;;;;;-146.44;100.00;58906.56;5096293;27;45530;-64
2022/07/02 10:53:57;;;;;;;;;1.00;1.00;;;;;-146.44;100.00;58906.56;5096231;27;45548;-63
2022/07/02 10:56:23;;;;;;;;;1.25;1.25;;;;;-146.44;100.00;58906.56;5096279;27;45387;-62
2022/07/02 10:58:49;;;;;;;;;1.00;1.00;;;;;-146.44;100.00;58906.56;5095960;27;45505;-62
2022/07/02 11:01:17;;;;;;;;;2.00;2.00;;;;;-146.44;100.00;58906.56;5095962;27;45589;-63
2022/07/02 11:03:56;;;;;;;;;1.00;1.00;;;;;-146.44;100.00;58906.56;5095984;27;45429;-64
2022/07/02 11:06:25;;;;;;;;;1.00;1.00;;;;;-146.44;100.00;58906.56;5096207;27;45433;-64
2022/07/02 11:09:08;;;;;;;;;0.50;0.50;;;;;-146.44;100.00;58906.56;5095780;27;45523;-63
2022/07/02 11:11:37;;;;;;;;;2.00;2.00;;;;;-146.44;100.00;58906.56;5095737;27;45627;-65
2022/07/02 11:14:08;;;;;;;;;1.50;1.00;;;;;-146.44;100.00;58906.56;5095911;27;45490;-64